Data for 08/22/2008

Time Sea-Level Adjusted Pressure Absolute Pressure Temperature Relative Humidity Dew Point   
(mb) (inHg) (mb) (inHg) (C) (F) (%) (C) (F)
00:05 1017 30.03 846 24.98 10.6 51 53 1.5 34.7
00:10 1017 30.03 846 24.98 10.6 51 53 1.5 34.7
00:15 1017 30.03 846 24.98 10.5 50.9 53 1.4 34.5
00:20 1017 30.03 846 24.98 10.4 50.6 55 1.8 35.2
00:25 1017 30.03 847 25.01 10.1 50.1 55 1.5 34.8
00:30 1018 30.06 847 25.01 10 50 56 1.5 34.8
00:35 1018 30.06 847 25.01 9.8 49.6 55 1.2 34.2
00:40 1018 30.06 847 25.01 9.8 49.6 55 1.1 34.1
00:45 1018 30.06 847 25.01 9.8 49.6 55 1.3 34.3
00:50 1018 30.06 847 25.01 9.7 49.5 52 0.3 32.5
00:55 1018 30.06 847 25.01 9.9 49.8 50 0 32
01:00 1018 30.06 847 25.01 10 49.9 51 0.4 32.7
01:05 1018 30.06 847 25.01 9.8 49.7 53 0.8 33.4
01:10 1018 30.06 847 25.01 9.7 49.4 53 0.6 33
01:15 1018 30.06 847 25.01 9.5 49.1 52 0.2 32.3
01:20 1018 30.06 847 25.01 9.5 49.2 51 0 32.1
01:25 1018 30.06 847 25.01 9.6 49.2 53 0.5 32.9
01:30 1018 30.06 847 25.01 9.4 48.9 53 0.4 32.7
01:35 1018 30.06 847 25.01 9.3 48.7 53 0.2 32.4
01:40 1018 30.06 847 25.01 9.3 48.7 54 0.4 32.7
01:45 1018 30.06 848 25.04 9.1 48.4 55 0.5 33
01:50 1018 30.06 848 25.04 8.8 47.8 56 0.6 33
01:55 1018 30.06 848 25.04 8.6 47.4 58 0.8 33.4
02:00 1019 30.09 848 25.04 8.5 47.3 57 0.5 32.9
02:05 1019 30.09 848 25.04 8.4 47.1 58 0.6 33.1
02:10 1019 30.09 848 25.04 8.3 46.9 59 0.8 33.4
02:15 1019 30.09 848 25.04 7.9 46.1 60 0.6 33.1
02:20 1019 30.09 848 25.04 7.6 45.7 61 0.7 33.3
02:25 1019 30.09 848 25.04 7.5 45.4 62 0.7 33.2
02:30 1019 30.09 848 25.04 7.6 45.6 61 0.7 33.2
02:35 1019 30.09 848 25.04 7.9 46.2 58 0.3 32.5
02:40 1019 30.09 848 25.04 8 46.4 59 0.6 33
02:45 1019 30.09 848 25.04 7.9 46.1 62 1 33.8
02:50 1019 30.09 848 25.04 7.5 45.6 67 1.7 35.1
02:55 1019 30.09 848 25.04 7.4 45.3 65 1.2 34.1
03:00 1019 30.09 848 25.04 7.5 45.5 67 1.7 35.1
03:05 1019 30.09 848 25.04 7.4 45.4 66 1.4 34.5
03:10 1019 30.09 848 25.04 7.5 45.4 65 1.4 34.5
03:15 1019 30.09 848 25.04 7.6 45.7 67 1.9 35.4
03:20 1019 30.09 848 25.04 7.6 45.7 66 1.8 35.2
03:25 1019 30.09 848 25.04 7.3 45.1 70 2.3 36.1
03:30 1019 30.09 848 25.04 7 44.5 70 1.9 35.5
03:35 1019 30.09 848 25.04 6.7 44.1 72 2.1 35.7
03:40 1019 30.09 848 25.04 6.7 44 72 2 35.6
03:45 1019 30.09 848 25.04 6.9 44.5 69 1.7 35.1
03:50 1019 30.09 848 25.04 7.4 45.2 68 1.9 35.4
03:55 1019 30.09 848 25.04 7.5 45.5 65 1.4 34.5
04:00 1019 30.09 848 25.04 7.8 46 65 1.6 34.9
04:05 1019 30.09 848 25.04 7.9 46.2 63 1.4 34.4
04:10 1019 30.09 848 25.04 8 46.4 63 1.4 34.4
04:15 1019 30.09 849 25.07 8.1 46.6 62 1.2 34.2
04:20 1019 30.09 849 25.07 8.1 46.6 62 1.3 34.3
04:25 1019 30.09 849 25.07 8 46.5 63 1.5 34.8
04:30 1019 30.09 849 25.07 7.6 45.7 65 1.6 34.8
04:35 1020 30.12 849 25.07 7.6 45.6 65 1.4 34.5
04:40 1020 30.12 849 25.07 7.5 45.6 66 1.6 34.8
04:45 1020 30.12 849 25.07 7.2 44.9 67 1.5 34.7
04:50 1020 30.12 849 25.07 6.9 44.5 66 1.1 34
04:55 1020 30.12 849 25.07 7 44.5 67 1.3 34.3
05:00 1020 30.12 849 25.07 6.7 44 66 0.8 33.5
05:05 1020 30.12 849 25.07 6.8 44.2 65 0.6 33.2
05:10 1020 30.12 849 25.07 7 44.6 61 0.1 32.2
05:15 1020 30.12 849 25.07 7.3 45.2 60 0.1 32.2
05:20 1020 30.12 849 25.07 7.6 45.6 57 -0.4 31.4
05:25 1020 30.12 849 25.07 7.9 46.1 55 -0.5 31.1
05:30 1020 30.12 849 25.07 8.1 46.5 55 -0.3 31.5
05:35 1020 30.12 849 25.07 8.1 46.6 55 -0.5 31.2
05:40 1020 30.12 849 25.07 8.1 46.6 55 -0.4 31.2
05:45 1020 30.12 849 25.07 8.1 46.6 56 -0.2 31.6
05:50 1020 30.12 850 25.1 7.9 46.3 56 -0.2 31.7
05:55 1020 30.12 850 25.1 7.9 46.1 58 0 32
06:00 1021 30.15 850 25.1 7.5 45.4 61 0.4 32.7
06:05 1021 30.15 850 25.1 7.1 44.7 63 0.5 32.8
06:10 1021 30.15 850 25.1 6.5 43.6 67 0.9 33.6
06:15 1021 30.15 850 25.1 6.2 43.1 67 0.5 32.9
06:20 1021 30.15 850 25.1 6.3 43.3 66 0.4 32.7
06:25 1021 30.15 850 25.1 6.5 43.6 66 0.5 33
06:30 1021 30.15 850 25.1 6.5 43.7 66 0.6 33.1
06:35 1021 30.15 850 25.1 6.4 43.6 67 0.7 33.2
06:40 1021 30.15 851 25.13 6.3 43.3 68 0.8 33.5
06:45 1021 30.15 851 25.13 5.8 42.5 71 1 33.7
06:50 1021 30.15 851 25.13 5.4 41.7 72 0.7 33.2
06:55 1022 30.18 851 25.13 5.5 41.9 71 0.7 33.3
07:00 1022 30.18 851 25.13 5.5 41.9 71 0.7 33.2
07:05 1022 30.18 851 25.13 5.3 41.5 72 0.7 33.2
07:10 1022 30.18 851 25.13 5.1 41.3 70 0.2 32.3
07:15 1022 30.18 851 25.13 5.8 42.4 68 0.4 32.8
07:20 1022 30.18 851 25.13 5.6 42.1 70 0.5 33
07:25 1022 30.18 851 25.13 5.7 42.2 68 0.3 32.5
07:30 1022 30.18 852 25.16 6.1 43 64 -0.1 31.8
07:35 1022 30.18 852 25.16 6.6 44 62 -0.1 31.7
07:40 1022 30.18 852 25.16 6.9 44.4 61 0 32
07:45 1023 30.21 852 25.16 7.8 46 58 0 32
07:50 1023 30.21 852 25.16 8.6 47.4 59 1 33.7
07:55 1023 30.21 852 25.16 7.8 46.1 62 1.1 34
08:00 1023 30.21 852 25.16 7.4 45.3 62 0.7 33.3
08:05 1023 30.21 852 25.16 7.6 45.7 63 0.9 33.6
08:10 1023 30.21 852 25.16 8.1 46.5 59 0.7 33.2
08:15 1023 30.21 852 25.16 9.1 48.4 57 1 33.9
08:20 1023 30.21 852 25.16 9.8 49.6 57 1.8 35.2
08:25 1023 30.21 852 25.16 9.5 49.1 59 1.8 35.3
08:30 1023 30.21 852 25.16 9.2 48.6 60 1.9 35.4
08:35 1023 30.21 852 25.16 8.9 47.9 60 1.5 34.7
08:40 1023 30.21 852 25.16 9.2 48.5 57 1.2 34.2
08:45 1023 30.21 852 25.16 9.6 49.2 57 1.4 34.5
08:50 1023 30.21 852 25.16 10.5 50.8 52 1 33.8
08:55 1023 30.21 852 25.16 11.3 52.4 51 1.6 34.8
09:00 1023 30.21 852 25.16 11.6 52.9 48 1.1 33.9
09:05 1023 30.21 853 25.19 10.5 50.8 53 1.5 34.6
09:10 1023 30.21 853 25.19 10 50.1 52 0.6 33.1
09:15 1023 30.21 853 25.19 10.6 51 51 1 33.8
09:20 1023 30.21 853 25.19 11.4 52.6 49 1.1 34.1
09:25 1023 30.21 853 25.19 12.1 53.9 46 0.9 33.6
09:30 1024 30.24 853 25.19 11.9 53.4 47 1 33.7
09:35 1024 30.24 853 25.19 11.3 52.4 51 1.6 34.8
09:40 1024 30.24 853 25.19 11.4 52.4 51 1.5 34.7
09:45 1024 30.24 853 25.19 10.8 51.4 52 1.3 34.4
09:50 1024 30.24 853 25.19 11.1 52.1 51 1.4 34.5
09:55 1024 30.24 853 25.19 11.7 53 47 0.8 33.4
10:00 1024 30.24 853 25.19 13.2 55.7 43 1 33.9
10:05 1024 30.24 853 25.19 13.4 56.2 44 1.5 34.7
10:10 1024 30.24 853 25.19 13.1 55.6 43 0.8 33.5
10:15 1024 30.24 853 25.19 13.6 56.6 40 0.2 32.4
10:20 1024 30.24 853 25.19 14.2 57.6 39 0.4 32.8
10:25 1024 30.24 853 25.19 14 57.1 40 0.6 33
10:30 1024 30.24 853 25.19 14.2 57.5 38 0.1 32.2
10:35 1024 30.24 853 25.19 14.4 57.9 38 0.2 32.3
10:40 1024 30.24 853 25.19 14.6 58.3 37 0.2 32.4
10:45 1024 30.24 853 25.19 14.8 58.7 36 -0.1 31.8
10:50 1024 30.24 853 25.19 14.1 57.4 38 -0 32
10:55 1024 30.24 853 25.19 14.3 57.8 36 -0.5 31.1
11:00 1024 30.24 853 25.19 14.8 58.7 36 -0.1 31.9
11:05 1024 30.24 853 25.19 15 59 35 -0.2 31.7
11:10 1024 30.24 853 25.19 15.6 60.1 33 -0.5 31.1
11:15 1024 30.24 853 25.19 15.8 60.5 33 -0.4 31.2
11:20 1024 30.24 853 25.19 15.4 59.7 33 -0.9 30.4
11:25 1024 30.24 853 25.19 15.5 59.9 33 -0.7 30.7
11:30 1024 30.24 853 25.19 15.6 60 32 -0.9 30.4
11:35 1024 30.24 853 25.19 15.2 59.3 32 -1.3 29.7
11:40 1024 30.24 853 25.19 15.7 60.2 32 -1 30.2
11:45 1024 30.24 853 25.19 15.9 60.6 32 -0.9 30.4
11:50 1024 30.24 853 25.19 15.1 59.1 34 -0.6 30.9
11:55 1024 30.24 853 25.19 15.8 60.4 33 -0.3 31.4
12:00 1024 30.24 853 25.19 16.7 62 30 -0.7 30.7
12:05 1024 30.24 853 25.19 16.7 62 32 0 32
12:10 1024 30.24 853 25.19 16.7 62 31 -0.2 31.6
12:15 1024 30.24 853 25.19 16.4 61.5 30 -1.2 29.9
12:20 1024 30.24 853 25.19 16 60.8 30 -1.5 29.3
12:25 1024 30.24 853 25.19 16.1 61 31 -0.8 30.6
12:30 1023 30.21 853 25.19 17 62.6 30 -0.8 30.5
12:35 1024 30.24 853 25.19 17.1 62.7 29 -0.8 30.6
12:40 1024 30.24 853 25.19 17.1 62.8 30 -0.6 31
12:45 1023 30.21 853 25.19 16.5 61.8 30 -0.8 30.5
12:50 1023 30.21 853 25.19 16.1 60.9 32 -0.5 31.1
12:55 1023 30.21 852 25.16 16.9 62.3 30 -0.7 30.7
13:00 1023 30.21 853 25.19 17.7 63.8 27 -1.3 29.6
13:05 1023 30.21 853 25.19 17.9 64.1 27 -1.3 29.6
13:10 1023 30.21 853 25.19 17.4 63.2 28 -1.1 30
13:15 1023 30.21 853 25.19 16.5 61.7 29 -1.3 29.7
13:20 1023 30.21 852 25.16 17 62.5 29 -1.1 30
13:25 1023 30.21 852 25.16 17.9 64.3 27 -1.3 29.7
13:30 1023 30.21 852 25.16 19 66.1 26 -0.8 30.6
13:35 1023 30.21 852 25.16 18.9 66.1 26 -0.7 30.7
13:40 1023 30.21 852 25.16 18.6 65.5 28 -0.2 31.7
13:45 1023 30.21 852 25.16 17.9 64.3 28 -0.8 30.6
13:50 1023 30.21 852 25.16 18.2 64.7 27 -1.2 29.8
13:55 1023 30.21 852 25.16 18.3 65 27 -0.7 30.7
14:00 1023 30.21 852 25.16 17.5 63.5 29 -0.8 30.5
14:05 1023 30.21 852 25.16 17.8 64.1 26 -1.6 29.1
14:10 1023 30.21 852 25.16 18.8 65.9 25 -1.3 29.6
14:15 1023 30.21 852 25.16 19.3 66.7 25 -0.9 30.4
14:20 1023 30.21 852 25.16 18.7 65.6 26 -1.1 30
14:25 1023 30.21 852 25.16 18.7 65.7 26 -0.8 30.6
14:30 1023 30.21 852 25.16 19.4 66.9 25 -1.3 29.7
14:35 1023 30.21 852 25.16 19.6 67.3 26 -0.4 31.2
14:40 1023 30.21 852 25.16 19.4 66.9 25 -0.9 30.4
14:45 1023 30.21 852 25.16 19.3 66.7 25 -1.2 29.8
14:50 1023 30.21 852 25.16 18.5 65.2 27 -0.6 31
14:55 1023 30.21 852 25.16 19.4 67 24 -1.3 29.6
15:00 1023 30.21 852 25.16 19.7 67.5 25 -0.5 31.1
15:05 1023 30.21 852 25.16 19.5 67.2 26 -0.5 31
15:10 1023 30.21 852 25.16 19.4 66.9 26 -0.6 30.9
15:15 1022 30.18 852 25.16 20.3 68.5 24 -1 30.2
15:20 1022 30.18 852 25.16 20.7 69.2 23 -0.8 30.6
15:25 1022 30.18 852 25.16 20.5 68.9 24 -0.8 30.5
15:30 1022 30.18 852 25.16 20.6 69.1 23 -1.1 30.1
15:35 1022 30.18 852 25.16 20.8 69.5 23 -0.6 30.8
15:40 1022 30.18 851 25.13 20.7 69.2 24 -0.4 31.2
15:45 1022 30.18 851 25.13 20.5 68.8 24 -0.7 30.8
15:50 1022 30.18 851 25.13 20.1 68.1 25 -0.6 30.9
15:55 1022 30.18 851 25.13 20.5 68.9 23 -1.3 29.7
16:00 1022 30.18 851 25.13 20.9 69.6 24 -0.1 31.8
16:05 1022 30.18 851 25.13 20.9 69.6 22 -1.6 29.1
16:10 1022 30.18 851 25.13 21.5 70.7 22 -0.9 30.4
16:15 1022 30.18 851 25.13 21.7 71.1 22 -0.8 30.6
16:20 1022 30.18 851 25.13 21.7 71 22 -0.9 30.4
16:25 1022 30.18 851 25.13 20.5 68.9 23 -1.1 30.1
16:30 1022 30.18 851 25.13 20.7 69.2 22 -1.5 29.3
16:35 1022 30.18 851 25.13 21 69.9 22 -1.5 29.3
16:40 1022 30.18 851 25.13 21 69.9 21 -2.2 28
16:45 1022 30.18 851 25.13 20.8 69.4 22 -1.2 29.8
16:50 1022 30.18 851 25.13 20.9 69.7 23 -0.7 30.8
16:55 1022 30.18 851 25.13 19.9 67.9 23 -1.7 29
17:00 1022 30.18 851 25.13 20.4 68.8 23 -1.4 29.4
17:05 1022 30.18 851 25.13 21.2 70.2 21 -1.8 28.7
17:10 1022 30.18 851 25.13 21.4 70.5 23 -0.4 31.3
17:15 1022 30.18 851 25.13 20.2 68.3 23 -1.3 29.7
17:20 1022 30.18 851 25.13 19.9 67.8 24 -1.3 29.7
17:25 1022 30.18 851 25.13 19.6 67.3 24 -1.1 30
17:30 1022 30.18 851 25.13 20.1 68.1 23 -1.6 29.1
17:35 1021 30.15 851 25.13 20.3 68.5 22 -1.8 28.8
17:40 1022 30.18 851 25.13 20.9 69.7 22 -1.3 29.6
17:45 1021 30.15 851 25.13 20.3 68.6 22 -1.9 28.5
17:50 1021 30.15 851 25.13 20.4 68.8 23 -1.3 29.7
17:55 1021 30.15 851 25.13 19.5 67.1 24 -1.6 29.1
18:00 1021 30.15 851 25.13 19.7 67.5 23 -1.8 28.8
18:05 1021 30.15 851 25.13 20.6 69 21 -2.1 28.2
18:10 1021 30.15 851 25.13 20.8 69.4 21 -1.9 28.6
18:15 1021 30.15 851 25.13 20.5 69 22 -1.8 28.8
18:20 1021 30.15 851 25.13 20.3 68.6 23 -1.5 29.2
18:25 1021 30.15 851 25.13 21 69.9 21 -1.8 28.8
18:30 1021 30.15 851 25.13 20.9 69.6 21 -2 28.4
18:35 1021 30.15 851 25.13 21.3 70.3 21 -1.7 28.9
18:40 1021 30.15 851 25.13 21.3 70.3 21 -1.5 29.3
18:45 1021 30.15 851 25.13 20.4 68.6 23 -1.3 29.7
18:50 1021 30.15 851 25.13 20 67.9 23 -1.8 28.7
18:55 1021 30.15 851 25.13 19.7 67.5 23 -1.9 28.7
19:00 1021 30.15 851 25.13 19.7 67.5 23 -1.7 28.9
19:05 1021 30.15 851 25.13 19.4 67 24 -1.6 29
19:10 1021 30.15 851 25.13 19.4 67 23 -2.2 28
19:15 1021 30.15 850 25.1 19.3 66.8 23 -2.2 28
19:20 1021 30.15 850 25.1 19.3 66.8 24 -1.4 29.5
19:25 1021 30.15 850 25.1 19.2 66.6 24 -1.4 29.4
19:30 1021 30.15 850 25.1 19.2 66.5 24 -2 28.4
19:35 1021 30.15 850 25.1 19.2 66.5 24 -1.9 28.6
19:40 1021 30.15 850 25.1 19.1 66.3 23 -2.3 27.9
19:45 1021 30.15 850 25.1 19.1 66.3 24 -1.6 29.1
19:50 1021 30.15 850 25.1 19 66.2 25 -1.2 29.8
19:55 1021 30.15 850 25.1 18.9 66.1 24 -1.9 28.7
20:00 1021 30.15 850 25.1 18.9 66 23 -2.3 27.9
20:05 1021 30.15 851 25.13 18.9 66 27 -0.3 31.4
20:10 1021 30.15 851 25.13 18.7 65.6 25 -1.6 29.2
20:15 1021 30.15 851 25.13 18.7 65.6 24 -1.9 28.5
20:20 1021 30.15 851 25.13 18.5 65.3 25 -1.7 28.9
20:25 1021 30.15 851 25.13 18.3 64.9 28 -0.5 31
20:30 1021 30.15 851 25.13 17.8 64 31 0.6 33.2
20:35 1021 30.15 851 25.13 17 62.5 37 2.1 35.8
20:40 1022 30.18 851 25.13 16.4 61.5 43 3.9 39.1
20:45 1022 30.18 851 25.13 15.9 60.7 44 3.6 38.6
20:50 1022 30.18 851 25.13 15.3 59.6 45 3.4 38.2
20:55 1022 30.18 851 25.13 14.6 58.3 48 3.9 39.1
21:00 1022 30.18 851 25.13 13.9 57 53 4.6 40.2
21:05 1022 30.18 851 25.13 13.4 56.1 48 2.7 36.8
21:10 1022 30.18 851 25.13 13.4 56.1 48 2.5 36.6
21:15 1022 30.18 851 25.13 13.5 56.3 45 1.7 35.1
21:20 1022 30.18 851 25.13 13.6 56.5 45 1.9 35.3
21:25 1022 30.18 851 25.13 13.5 56.3 47 2.4 36.2
21:30 1022 30.18 851 25.13 13.2 55.7 49 2.6 36.7
21:35 1022 30.18 851 25.13 12.8 55 48 2.2 36
21:40 1022 30.18 851 25.13 12.8 55 50 2.6 36.6
21:45 1022 30.18 851 25.13 12.4 54.3 50 2.4 36.3
21:50 1022 30.18 851 25.13 12.3 54.1 50 2.1 35.8
21:55 1022 30.18 851 25.13 12.4 54.3 49 2.1 35.8
22:00 1022 30.18 851 25.13 12.3 54.2 50 2.3 36.1
22:05 1022 30.18 851 25.13 12.2 54 50 2.1 35.7
22:10 1022 30.18 851 25.13 12.2 54 47 1.3 34.3
22:15 1022 30.18 851 25.13 12.4 54.4 46 1.1 33.9
22:20 1022 30.18 851 25.13 12.7 54.8 41 -0.1 31.9
22:25 1022 30.18 851 25.13 13.1 55.6 42 0.7 33.3
22:30 1022 30.18 851 25.13 13.3 55.9 41 0.2 32.4
22:35 1022 30.18 851 25.13 13.5 56.3 39 -0.2 31.6
22:40 1022 30.18 851 25.13 14 57.1 38 0.1 32.2
22:45 1022 30.18 851 25.13 14 57.2 39 0.4 32.7
22:50 1022 30.18 851 25.13 13.7 56.6 40 0.4 32.7
22:55 1022 30.18 851 25.13 13.8 56.8 41 0.7 33.3
23:00 1022 30.18 851 25.13 13.5 56.2 41 0.7 33.3
23:05 1022 30.18 851 25.13 13.5 56.4 40 0.2 32.3
23:10 1022 30.18 851 25.13 13.8 56.8 38 -0.2 31.7
23:15 1022 30.18 851 25.13 13.8 56.9 38 -0 32
23:20 1022 30.18 851 25.13 13.9 57 38 -0.1 31.9
23:25 1022 30.18 851 25.13 13.7 56.6 38 -0.3 31.5
23:30 1022 30.18 851 25.13 13.6 56.5 39 -0.2 31.7
23:35 1022 30.18 851 25.13 13.8 56.9 37 -0.7 30.7
23:40 1022 30.18 851 25.13 13.9 57 37 -0.5 31.2
23:45 1022 30.18 851 25.13 13.9 57 36 -0.7 30.8
23:50 1022 30.18 851 25.13 14.1 57.3 36 -0.8 30.5
23:55 1022 30.18 851 25.13 14.5 58.1 35 -0.5 31.1
24:00 1022 30.18 851 25.13 15 58.9 35 -0.4 31.3